Maersk Klaipeda — VRGL5 — position and weather

sailwx.info

Track history (hours):
 
Tides and Currents Weather Stations Pressure Air Temp Water Temp Dewpoint Dewpoint Depression Visibility Wind Speed Wind Dir Waves Ship Positions

Maersk Klaipeda

Last reported at 2017-Oct-30 19:42 UTC. Time now 2017-Nov-18 15:47 UTC.
Position N 35°52' E 030°23'.
Warning: this ship's position is 18 days out of date.

Length 300 m; draft 12.2 m.

Type: Ship (hazmat cat A). MMSI: 477728600.

Date/timePositionNaut miles runAvg speedWind from/ knotsBaromVisibWave heightAir tempDewpointWater temp
2017-Oct-30 19:42N 35°52' E 030°23'23512.9
2017-Oct-30 01:32N 37°28' E 025°56'014.3
2017-Oct-30 01:30N 37°28' E 025°55'713.9
2017-Oct-30 01:00N 37°35' E 025°53'245 5.8
2017-Oct-28 07:03N 40°56' E 028°53'1 9.2
2017-Oct-28 06:54N 40°57' E 028°55'145 6.2
2017-Oct-27 07:24N 43°22' E 029°03'1313.3
2017-Oct-27 06:26N 43°35' E 029°02'613.1
2017-Oct-27 06:00N 43°40' E 029°03'612.4
2017-Oct-27 05:30N 43°46' E 029°02'713.6
2017-Oct-27 05:00N 43°52' E 028°56'713.6
2017-Oct-27 04:30N 43°57' E 028°50'713.6
2017-Oct-27 04:00N 44°03' E 028°45'4 8.9
2017-Oct-27 03:30N 44°06' E 028°42'2 3.1
2017-Oct-27 03:00N 44°07' E 028°39'0 0.7
2017-Oct-27 02:30N 44°06' E 028°40'0 0.0
2017-Oct-27 01:54N 44°06' E 028°40'0 0.0
2017-Oct-27 01:30N 44°06' E 028°40'0 0.0
2017-Oct-27 00:57N 44°06' E 028°40'0 0.0
2017-Oct-27 00:30N 44°06' E 028°40'0 0.0
2017-Oct-27 00:00N 44°06' E 028°40'0 0.0
2017-Oct-26 23:30N 44°06' E 028°40'0 0.0
2017-Oct-26 23:00N 44°06' E 028°40'0 0.0
2017-Oct-26 22:30N 44°06' E 028°40'0 0.0
2017-Oct-26 22:00N 44°06' E 028°40'0 0.0
2017-Oct-26 21:30N 44°06' E 028°40'0 0.0
2017-Oct-26 21:00N 44°06' E 028°40'0 0.0
2017-Oct-26 20:30N 44°06' E 028°40'0 0.0
2017-Oct-26 20:00N 44°06' E 028°40'0 0.0
2017-Oct-26 19:30N 44°06' E 028°40'0 0.0
2017-Oct-26 19:00N 44°06' E 028°40'0 0.0
2017-Oct-26 18:30N 44°06' E 028°40'0 0.0
2017-Oct-26 18:00N 44°06' E 028°40'0 0.0
2017-Oct-26 17:30N 44°06' E 028°40'0 0.0
2017-Oct-26 17:00N 44°06' E 028°40'0 0.0
2017-Oct-26 16:30N 44°06' E 028°40'0 0.0
2017-Oct-26 15:57N 44°06' E 028°40'0 0.0
2017-Oct-26 15:30N 44°06' E 028°40'0 0.0
2017-Oct-26 15:00N 44°06' E 028°40'0 0.0
2017-Oct-26 14:30N 44°06' E 028°40'0 0.0
2017-Oct-26 14:00N 44°06' E 028°40'0 0.0
2017-Oct-26 13:30N 44°06' E 028°40'0 0.0
2017-Oct-26 13:00N 44°06' E 028°40'0 0.0
2017-Oct-26 12:30N 44°06' E 028°40'0 0.0
2017-Oct-26 12:00N 44°06' E 028°40'0 0.0
2017-Oct-26 11:30N 44°06' E 028°40'0 0.0
2017-Oct-26 11:00N 44°06' E 028°40'0 0.0
2017-Oct-26 10:30N 44°06' E 028°40'0 0.0
2017-Oct-26 10:00N 44°06' E 028°40'0 0.0
2017-Oct-26 09:30N 44°06' E 028°40'0 0.0
2017-Oct-26 09:00N 44°06' E 028°40'0 0.0
2017-Oct-26 08:30N 44°06' E 028°40'0 0.0
2017-Oct-26 08:00N 44°06' E 028°40'0 0.0
2017-Oct-26 07:30N 44°06' E 028°40'0 0.0
2017-Oct-26 07:00N 44°06' E 028°40'0 0.0
2017-Oct-26 06:30N 44°06' E 028°40'0 0.0
2017-Oct-26 06:00N 44°06' E 028°40'0 0.0
2017-Oct-26 05:30N 44°06' E 028°40'0 0.0
2017-Oct-26 04:57N 44°06' E 028°40'0 0.0
2017-Oct-26 04:27N 44°06' E 028°40'0 0.0
2017-Oct-26 04:00N 44°06' E 028°40'0 0.0
2017-Oct-26 03:30N 44°06' E 028°40'0 0.0
2017-Oct-26 03:00N 44°06' E 028°40'0 0.0
2017-Oct-26 02:29N 44°06' E 028°40'0 0.0
2017-Oct-26 01:59N 44°06' E 028°40'0 0.0
2017-Oct-26 01:29N 44°06' E 028°40'0 0.0
2017-Oct-26 00:59N 44°06' E 028°40'0 0.0
2017-Oct-26 00:29N 44°06' E 028°40'0 0.0
2017-Oct-25 23:59N 44°06' E 028°40'0 0.0
2017-Oct-25 23:29N 44°06' E 028°40'0 0.0
2017-Oct-25 22:59N 44°06' E 028°40'0 0.0
2017-Oct-25 22:29N 44°06' E 028°40'0 0.0
2017-Oct-25 21:59N 44°06' E 028°40'0 0.0
2017-Oct-25 21:29N 44°06' E 028°40'0 0.0
2017-Oct-25 20:59N 44°06' E 028°40'0 0.0
2017-Oct-25 20:29N 44°06' E 028°40'0 0.0
2017-Oct-25 20:01N 44°06' E 028°40'0 0.9
2017-Oct-25 19:31N 44°06' E 028°40'2 3.3
2017-Oct-25 19:01N 44°06' E 028°42'3 6.1
2017-Oct-25 18:31N 44°04' E 028°46'2 4.6
2017-Oct-25 18:01N 44°06' E 028°48'3 6.2
2017-Oct-25 17:31N 44°09' E 028°46'0 0.0
2017-Oct-25 17:00N 44°09' E 028°46'0 0.0
2017-Oct-25 16:30N 44°09' E 028°46'0 0.0
2017-Oct-25 16:00N 44°09' E 028°46'0 0.1
2017-Oct-25 15:30N 44°09' E 028°46'0 0.0
2017-Oct-25 15:00N 44°09' E 028°46'0 0.0
2017-Oct-25 14:30N 44°09' E 028°46'0 0.0
2017-Oct-25 14:00N 44°09' E 028°46'0 0.0
2017-Oct-25 13:30N 44°09' E 028°46'0 0.0
2017-Oct-25 13:00N 44°09' E 028°46'0 0.0
2017-Oct-25 12:30N 44°09' E 028°46'0 0.1
2017-Oct-25 12:00N 44°09' E 028°46'0 0.1
2017-Oct-25 11:30N 44°09' E 028°46'0 0.1
2017-Oct-25 11:00N 44°09' E 028°46'0 0.0
2017-Oct-25 10:30N 44°09' E 028°46'0 0.0
2017-Oct-25 10:00N 44°09' E 028°46'0 0.0
2017-Oct-25 09:30N 44°09' E 028°46'0 0.0
2017-Oct-25 09:00N 44°09' E 028°46'0 0.0
2017-Oct-25 08:30N 44°09' E 028°46'0 0.0
2017-Oct-25 08:00N 44°09' E 028°46'0 0.0
2017-Oct-25 07:30N 44°09' E 028°46'0 0.0
2017-Oct-25 07:00N 44°09' E 028°46'0 0.0
2017-Oct-25 06:30N 44°09' E 028°46'0 0.0
2017-Oct-25 06:00N 44°09' E 028°46'0 0.1
2017-Oct-25 05:30N 44°09' E 028°46'0 0.1
2017-Oct-25 05:00N 44°09' E 028°46'0 0.0
2017-Oct-25 04:30N 44°09' E 028°46'0 0.0
2017-Oct-25 04:00N 44°09' E 028°46'0 0.0
2017-Oct-25 03:30N 44°09' E 028°46'0 0.0
2017-Oct-25 03:00N 44°09' E 028°46'0 0.0
2017-Oct-25 02:30N 44°09' E 028°46'0 0.0
2017-Oct-25 02:00N 44°09' E 028°46'0 0.0
2017-Oct-25 01:30N 44°09' E 028°46'0 0.0
2017-Oct-25 01:00N 44°09' E 028°46'0 0.0
2017-Oct-25 00:30N 44°09' E 028°46'0 0.0
2017-Oct-25 00:00N 44°09' E 028°46'0 0.0
2017-Oct-24 23:30N 44°09' E 028°46'0 0.0
2017-Oct-24 23:00N 44°09' E 028°46'0 0.0
2017-Oct-24 22:30N 44°09' E 028°46'0 0.0
2017-Oct-24 22:00N 44°09' E 028°46'0 0.1
2017-Oct-24 21:30N 44°09' E 028°46'0 0.0
2017-Oct-24 21:00N 44°09' E 028°46'0 0.0
2017-Oct-24 20:30N 44°09' E 028°46'0 0.0
2017-Oct-24 20:00N 44°09' E 028°46'0 0.1
2017-Oct-24 19:30N 44°09' E 028°46'0 0.1
2017-Oct-24 19:00N 44°09' E 028°46'0 0.0
2017-Oct-24 18:30N 44°09' E 028°46'0 0.0
2017-Oct-24 17:59N 44°09' E 028°46'0 0.0
2017-Oct-24 17:29N 44°09' E 028°46'0 0.1
2017-Oct-24 16:59N 44°09' E 028°46'0 0.0
2017-Oct-24 16:29N 44°09' E 028°46'0 0.0
2017-Oct-24 15:59N 44°09' E 028°46'0 0.0
2017-Oct-24 15:29N 44°09' E 028°46'0 0.1
2017-Oct-24 14:59N 44°09' E 028°46'0 0.0
2017-Oct-24 14:29N 44°09' E 028°46'0 0.0
2017-Oct-24 13:59N 44°09' E 028°46'0 0.1
2017-Oct-24 13:29N 44°09' E 028°46'0 0.0
2017-Oct-24 12:59N 44°09' E 028°46'0 0.0
2017-Oct-24 12:29N 44°09' E 028°46'0 0.0
2017-Oct-24 11:59N 44°09' E 028°46'0 0.0
2017-Oct-24 11:29N 44°09' E 028°46'0 0.1
2017-Oct-24 10:59N 44°09' E 028°46'0 0.1
2017-Oct-24 10:29N 44°09' E 028°46'0 0.2
2017-Oct-24 09:59N 44°09' E 028°46'0 0.1
2017-Oct-24 09:29N 44°09' E 028°46'0 0.1
2017-Oct-24 08:59N 44°09' E 028°46'0 0.0
2017-Oct-24 08:29N 44°09' E 028°46'0 0.1
2017-Oct-24 07:59N 44°10' E 028°46'0 0.1
2017-Oct-24 07:29N 44°09' E 028°46'0 0.1
2017-Oct-24 06:59N 44°10' E 028°46'0 0.1
2017-Oct-24 06:30N 44°09' E 028°46'0 0.1
2017-Oct-24 06:00N 44°09' E 028°46'0 0.0
2017-Oct-24 05:30N 44°09' E 028°46'0 0.9
2017-Oct-24 05:00N 44°10' E 028°47'5 9.6
2017-Oct-24 04:30N 44°11' E 028°53'611.7
2017-Oct-24 04:00N 44°10' E 029°02'611.8
2017-Oct-24 03:30N 44°10' E 029°10'611.8
2017-Oct-24 03:00N 44°12' E 029°18'611.5
2017-Oct-24 02:30N 44°15' E 029°24'611.7
2017-Oct-24 02:00N 44°18' E 029°31'13010.8
2017-Oct-23 14:01N 46°13' E 030°57'011.6
2017-Oct-23 13:59N 46°13' E 030°57'1110.4
2017-Oct-23 12:57N 46°18' E 030°43'3 0.1
2017-Oct-21 14:29N 46°20' E 030°40'7 7.5
2017-Oct-21 13:30N 46°18' E 030°50'714.4
2017-Oct-21 13:00N 46°25' E 030°51'612.2
2017-Oct-21 12:30N 46°30' E 030°46'1 1.2
2017-Oct-21 12:00N 46°29' E 030°46'0 0.0
2017-Oct-21 11:24N 46°29' E 030°46'0 0.0
2017-Oct-21 10:59N 46°29' E 030°46'0 0.0
2017-Oct-21 10:23N 46°29' E 030°46'0 0.0
2017-Oct-21 09:59N 46°29' E 030°46'0 0.0
2017-Oct-21 09:29N 46°29' E 030°46'0 0.0
2017-Oct-21 08:56N 46°29' E 030°46'0 0.0
2017-Oct-21 08:26N 46°29' E 030°46'0 0.0
2017-Oct-21 07:56N 46°29' E 030°46'0 0.0
2017-Oct-21 07:23N 46°29' E 030°46'0 0.0
2017-Oct-21 06:59N 46°29' E 030°46'0 0.0
2017-Oct-21 06:26N 46°29' E 030°46'0 0.0
2017-Oct-21 05:59N 46°29' E 030°46'0 0.0
2017-Oct-21 05:17N 46°29' E 030°46'0 0.0
2017-Oct-21 04:59N 46°29' E 030°46'0 0.0
2017-Oct-21 04:26N 46°29' E 030°46'0 0.0
2017-Oct-21 03:56N 46°29' E 030°46'1 2.1
2017-Oct-21 03:30N 46°30' E 030°47'2 4.9
2017-Oct-21 03:00N 46°29' E 030°50'4 7.4
2017-Oct-21 02:30N 46°26' E 030°52'815.1
2017-Oct-21 02:00N 46°18' E 030°55'2717.7
2017-Oct-21 00:29N 45°53' E 031°09'6220.3
2017-Oct-20 21:27N 44°54' E 030°46'1121.1
2017-Oct-20 20:56N 44°43' E 030°41'1321.2
2017-Oct-20 20:21N 44°31' E 030°36'721.1
2017-Oct-20 20:00N 44°25' E 030°33'  
Track history (hours):
 
Tides and Currents Weather Stations Pressure Air Temp Water Temp Dewpoint Dewpoint Depression Visibility Wind Speed Wind Dir Waves Ship Positions

Maersk Klaipeda

Last reported at 2017-Oct-30 19:42 UTC. Time now 2017-Nov-18 15:47 UTC.
Position N 35°52' E 030°23'.
Warning: this ship's position is 18 days out of date.

Length 300 m; draft 12.2 m.

Type: Ship (hazmat cat A). MMSI: 477728600.

Date/timePositionNaut miles runAvg speedWind from/ knotsBaromVisibWave heightAir tempDewpointWater temp
2017-Oct-30 19:42N 35°52' E 030°23'23512.9
2017-Oct-30 01:32N 37°28' E 025°56'014.3
2017-Oct-30 01:30N 37°28' E 025°55'713.9
2017-Oct-30 01:00N 37°35' E 025°53'245 5.8
2017-Oct-28 07:03N 40°56' E 028°53'1 9.2
2017-Oct-28 06:54N 40°57' E 028°55'145 6.2
2017-Oct-27 07:24N 43°22' E 029°03'1313.3
2017-Oct-27 06:26N 43°35' E 029°02'613.1
2017-Oct-27 06:00N 43°40' E 029°03'612.4
2017-Oct-27 05:30N 43°46' E 029°02'713.6
2017-Oct-27 05:00N 43°52' E 028°56'713.6
2017-Oct-27 04:30N 43°57' E 028°50'713.6
2017-Oct-27 04:00N 44°03' E 028°45'4 8.9
2017-Oct-27 03:30N 44°06' E 028°42'2 3.1
2017-Oct-27 03:00N 44°07' E 028°39'0 0.7
2017-Oct-27 02:30N 44°06' E 028°40'0 0.0
2017-Oct-27 01:54N 44°06' E 028°40'0 0.0
2017-Oct-27 01:30N 44°06' E 028°40'0 0.0
2017-Oct-27 00:57N 44°06' E 028°40'0 0.0
2017-Oct-27 00:30N 44°06' E 028°40'0 0.0
2017-Oct-27 00:00N 44°06' E 028°40'0 0.0
2017-Oct-26 23:30N 44°06' E 028°40'0 0.0
2017-Oct-26 23:00N 44°06' E 028°40'0 0.0
2017-Oct-26 22:30N 44°06' E 028°40'0 0.0
2017-Oct-26 22:00N 44°06' E 028°40'0 0.0
2017-Oct-26 21:30N 44°06' E 028°40'0 0.0
2017-Oct-26 21:00N 44°06' E 028°40'0 0.0
2017-Oct-26 20:30N 44°06' E 028°40'0 0.0
2017-Oct-26 20:00N 44°06' E 028°40'0 0.0
2017-Oct-26 19:30N 44°06' E 028°40'0 0.0
2017-Oct-26 19:00N 44°06' E 028°40'0 0.0
2017-Oct-26 18:30N 44°06' E 028°40'0 0.0
2017-Oct-26 18:00N 44°06' E 028°40'0 0.0
2017-Oct-26 17:30N 44°06' E 028°40'0 0.0
2017-Oct-26 17:00N 44°06' E 028°40'0 0.0
2017-Oct-26 16:30N 44°06' E 028°40'0 0.0
2017-Oct-26 15:57N 44°06' E 028°40'0 0.0
2017-Oct-26 15:30N 44°06' E 028°40'0 0.0
2017-Oct-26 15:00N 44°06' E 028°40'0 0.0
2017-Oct-26 14:30N 44°06' E 028°40'0 0.0
2017-Oct-26 14:00N 44°06' E 028°40'0 0.0
2017-Oct-26 13:30N 44°06' E 028°40'0 0.0
2017-Oct-26 13:00N 44°06' E 028°40'0 0.0
2017-Oct-26 12:30N 44°06' E 028°40'0 0.0
2017-Oct-26 12:00N 44°06' E 028°40'0 0.0
2017-Oct-26 11:30N 44°06' E 028°40'0 0.0
2017-Oct-26 11:00N 44°06' E 028°40'0 0.0
2017-Oct-26 10:30N 44°06' E 028°40'0 0.0
2017-Oct-26 10:00N 44°06' E 028°40'0 0.0
2017-Oct-26 09:30N 44°06' E 028°40'0 0.0
2017-Oct-26 09:00N 44°06' E 028°40'0 0.0
2017-Oct-26 08:30N 44°06' E 028°40'0 0.0
2017-Oct-26 08:00N 44°06' E 028°40'0 0.0
2017-Oct-26 07:30N 44°06' E 028°40'0 0.0
2017-Oct-26 07:00N 44°06' E 028°40'0 0.0
2017-Oct-26 06:30N 44°06' E 028°40'0 0.0
2017-Oct-26 06:00N 44°06' E 028°40'0 0.0
2017-Oct-26 05:30N 44°06' E 028°40'0 0.0
2017-Oct-26 04:57N 44°06' E 028°40'0 0.0
2017-Oct-26 04:27N 44°06' E 028°40'0 0.0
2017-Oct-26 04:00N 44°06' E 028°40'0 0.0
2017-Oct-26 03:30N 44°06' E 028°40'0 0.0
2017-Oct-26 03:00N 44°06' E 028°40'0 0.0
2017-Oct-26 02:29N 44°06' E 028°40'0 0.0
2017-Oct-26 01:59N 44°06' E 028°40'0 0.0
2017-Oct-26 01:29N 44°06' E 028°40'0 0.0
2017-Oct-26 00:59N 44°06' E 028°40'0 0.0
2017-Oct-26 00:29N 44°06' E 028°40'0 0.0
2017-Oct-25 23:59N 44°06' E 028°40'0 0.0
2017-Oct-25 23:29N 44°06' E 028°40'0 0.0
2017-Oct-25 22:59N 44°06' E 028°40'0 0.0
2017-Oct-25 22:29N 44°06' E 028°40'0 0.0
2017-Oct-25 21:59N 44°06' E 028°40'0 0.0
2017-Oct-25 21:29N 44°06' E 028°40'0 0.0
2017-Oct-25 20:59N 44°06' E 028°40'0 0.0
2017-Oct-25 20:29N 44°06' E 028°40'0 0.0
2017-Oct-25 20:01N 44°06' E 028°40'0 0.9
2017-Oct-25 19:31N 44°06' E 028°40'2 3.3
2017-Oct-25 19:01N 44°06' E 028°42'3 6.1
2017-Oct-25 18:31N 44°04' E 028°46'2 4.6
2017-Oct-25 18:01N 44°06' E 028°48'3 6.2
2017-Oct-25 17:31N 44°09' E 028°46'0 0.0
2017-Oct-25 17:00N 44°09' E 028°46'0 0.0
2017-Oct-25 16:30N 44°09' E 028°46'0 0.0
2017-Oct-25 16:00N 44°09' E 028°46'0 0.1
2017-Oct-25 15:30N 44°09' E 028°46'0 0.0
2017-Oct-25 15:00N 44°09' E 028°46'0 0.0
2017-Oct-25 14:30N 44°09' E 028°46'0 0.0
2017-Oct-25 14:00N 44°09' E 028°46'0 0.0
2017-Oct-25 13:30N 44°09' E 028°46'0 0.0
2017-Oct-25 13:00N 44°09' E 028°46'0 0.0
2017-Oct-25 12:30N 44°09' E 028°46'0 0.1
2017-Oct-25 12:00N 44°09' E 028°46'0 0.1
2017-Oct-25 11:30N 44°09' E 028°46'0 0.1
2017-Oct-25 11:00N 44°09' E 028°46'0 0.0
2017-Oct-25 10:30N 44°09' E 028°46'0 0.0
2017-Oct-25 10:00N 44°09' E 028°46'0 0.0
2017-Oct-25 09:30N 44°09' E 028°46'0 0.0
2017-Oct-25 09:00N 44°09' E 028°46'0 0.0
2017-Oct-25 08:30N 44°09' E 028°46'0 0.0
2017-Oct-25 08:00N 44°09' E 028°46'0 0.0
2017-Oct-25 07:30N 44°09' E 028°46'0 0.0
2017-Oct-25 07:00N 44°09' E 028°46'0 0.0
2017-Oct-25 06:30N 44°09' E 028°46'0 0.0
2017-Oct-25 06:00N 44°09' E 028°46'0 0.1
2017-Oct-25 05:30N 44°09' E 028°46'0 0.1
2017-Oct-25 05:00N 44°09' E 028°46'0 0.0
2017-Oct-25 04:30N 44°09' E 028°46'0 0.0
2017-Oct-25 04:00N 44°09' E 028°46'0 0.0
2017-Oct-25 03:30N 44°09' E 028°46'0 0.0
2017-Oct-25 03:00N 44°09' E 028°46'0 0.0
2017-Oct-25 02:30N 44°09' E 028°46'0 0.0
2017-Oct-25 02:00N 44°09' E 028°46'0 0.0
2017-Oct-25 01:30N 44°09' E 028°46'0 0.0
2017-Oct-25 01:00N 44°09' E 028°46'0 0.0
2017-Oct-25 00:30N 44°09' E 028°46'0 0.0
2017-Oct-25 00:00N 44°09' E 028°46'0 0.0
2017-Oct-24 23:30N 44°09' E 028°46'0 0.0
2017-Oct-24 23:00N 44°09' E 028°46'0 0.0
2017-Oct-24 22:30N 44°09' E 028°46'0 0.0
2017-Oct-24 22:00N 44°09' E 028°46'0 0.1
2017-Oct-24 21:30N 44°09' E 028°46'0 0.0
2017-Oct-24 21:00N 44°09' E 028°46'0 0.0
2017-Oct-24 20:30N 44°09' E 028°46'0 0.0
2017-Oct-24 20:00N 44°09' E 028°46'0 0.1
2017-Oct-24 19:30N 44°09' E 028°46'0 0.1
2017-Oct-24 19:00N 44°09' E 028°46'0 0.0
2017-Oct-24 18:30N 44°09' E 028°46'0 0.0
2017-Oct-24 17:59N 44°09' E 028°46'0 0.0
2017-Oct-24 17:29N 44°09' E 028°46'0 0.1
2017-Oct-24 16:59N 44°09' E 028°46'0 0.0
2017-Oct-24 16:29N 44°09' E 028°46'0 0.0
2017-Oct-24 15:59N 44°09' E 028°46'0 0.0
2017-Oct-24 15:29N 44°09' E 028°46'0 0.1
2017-Oct-24 14:59N 44°09' E 028°46'0 0.0
2017-Oct-24 14:29N 44°09' E 028°46'0 0.0
2017-Oct-24 13:59N 44°09' E 028°46'0 0.1
2017-Oct-24 13:29N 44°09' E 028°46'0 0.0
2017-Oct-24 12:59N 44°09' E 028°46'0 0.0
2017-Oct-24 12:29N 44°09' E 028°46'0 0.0
2017-Oct-24 11:59N 44°09' E 028°46'0 0.0
2017-Oct-24 11:29N 44°09' E 028°46'0 0.1
2017-Oct-24 10:59N 44°09' E 028°46'0 0.1
2017-Oct-24 10:29N 44°09' E 028°46'0 0.2
2017-Oct-24 09:59N 44°09' E 028°46'0 0.1
2017-Oct-24 09:29N 44°09' E 028°46'0 0.1
2017-Oct-24 08:59N 44°09' E 028°46'0 0.0
2017-Oct-24 08:29N 44°09' E 028°46'0 0.1
2017-Oct-24 07:59N 44°10' E 028°46'0 0.1
2017-Oct-24 07:29N 44°09' E 028°46'0 0.1
2017-Oct-24 06:59N 44°10' E 028°46'0 0.1
2017-Oct-24 06:30N 44°09' E 028°46'0 0.1
2017-Oct-24 06:00N 44°09' E 028°46'0 0.0
2017-Oct-24 05:30N 44°09' E 028°46'0 0.9
2017-Oct-24 05:00N 44°10' E 028°47'5 9.6
2017-Oct-24 04:30N 44°11' E 028°53'611.7
2017-Oct-24 04:00N 44°10' E 029°02'611.8
2017-Oct-24 03:30N 44°10' E 029°10'611.8
2017-Oct-24 03:00N 44°12' E 029°18'611.5
2017-Oct-24 02:30N 44°15' E 029°24'611.7
2017-Oct-24 02:00N 44°18' E 029°31'13010.8
2017-Oct-23 14:01N 46°13' E 030°57'011.6
2017-Oct-23 13:59N 46°13' E 030°57'1110.4
2017-Oct-23 12:57N 46°18' E 030°43'3 0.1
2017-Oct-21 14:29N 46°20' E 030°40'7 7.5
2017-Oct-21 13:30N 46°18' E 030°50'714.4
2017-Oct-21 13:00N 46°25' E 030°51'612.2
2017-Oct-21 12:30N 46°30' E 030°46'1 1.2
2017-Oct-21 12:00N 46°29' E 030°46'0 0.0
2017-Oct-21 11:24N 46°29' E 030°46'0 0.0
2017-Oct-21 10:59N 46°29' E 030°46'0 0.0
2017-Oct-21 10:23N 46°29' E 030°46'0 0.0
2017-Oct-21 09:59N 46°29' E 030°46'0 0.0
2017-Oct-21 09:29N 46°29' E 030°46'0 0.0
2017-Oct-21 08:56N 46°29' E 030°46'0 0.0
2017-Oct-21 08:26N 46°29' E 030°46'0 0.0
2017-Oct-21 07:56N 46°29' E 030°46'0 0.0
2017-Oct-21 07:23N 46°29' E 030°46'0 0.0
2017-Oct-21 06:59N 46°29' E 030°46'0 0.0
2017-Oct-21 06:26N 46°29' E 030°46'0 0.0
2017-Oct-21 05:59N 46°29' E 030°46'0 0.0
2017-Oct-21 05:17N 46°29' E 030°46'0 0.0
2017-Oct-21 04:59N 46°29' E 030°46'0 0.0
2017-Oct-21 04:26N 46°29' E 030°46'0 0.0
2017-Oct-21 03:56N 46°29' E 030°46'1 2.1
2017-Oct-21 03:30N 46°30' E 030°47'2 4.9
2017-Oct-21 03:00N 46°29' E 030°50'4 7.4
2017-Oct-21 02:30N 46°26' E 030°52'815.1
2017-Oct-21 02:00N 46°18' E 030°55'2717.7
2017-Oct-21 00:29N 45°53' E 031°09'6220.3
2017-Oct-20 21:27N 44°54' E 030°46'1121.1
2017-Oct-20 20:56N 44°43' E 030°41'1321.2
2017-Oct-20 20:21N 44°31' E 030°36'721.1
2017-Oct-20 20:00N 44°25' E 030°33'  

Dump ship's entire track history